Time;durP1;ratioP1;P1;durP2;ratioP2;P2;SDS_P1;SDS_P2;PMS_P1;PMS_P2;Temp;Humidity;BMP_temperature;BMP_pressure;BME280_temperature;BME280_humidity;BME280_pressure;Samples;Min_cycle;Max_cycle;Signal;HPM_P1;HPM_P2
2023/09/28 00:00:37;;;;;;;15.50;13.90;;;;;;;13.67;100.00;100177.25;5047491;28;20225;-63
2023/09/28 00:03:07;;;;;;;15.80;14.33;;;;;;;13.76;100.00;100178.38;5054038;28;20229;-63
2023/09/28 00:05:32;;;;;;;16.13;14.47;;;;;;;13.78;100.00;100172.19;5070056;28;20204;-65
2023/09/28 00:08:00;;;;;;;16.73;14.97;;;;;;;13.65;100.00;100171.34;5053395;28;20170;-64
2023/09/28 00:10:26;;;;;;;16.60;15.00;;;;;;;13.62;100.00;100169.78;5058574;28;20263;-64
2023/09/28 00:12:53;;;;;;;16.07;14.57;;;;;;;13.61;100.00;100165.53;5072127;28;20662;-64
2023/09/28 00:15:19;;;;;;;16.50;14.73;;;;;;;13.71;100.00;100156.25;5061145;28;20587;-65
2023/09/28 00:17:47;;;;;;;16.03;14.50;;;;;;;13.75;100.00;100162.03;5056929;28;20185;-63
2023/09/28 00:20:17;;;;;;;15.57;13.97;;;;;;;13.72;100.00;100165.66;5044497;28;20181;-64
2023/09/28 00:22:44;;;;;;;16.90;15.43;;;;;;;13.75;100.00;100166.38;5066786;28;20548;-64
2023/09/28 00:25:11;;;;;;;15.80;14.43;;;;;;;13.78;100.00;100158.41;5054204;28;20186;-64
2023/09/28 00:27:38;;;;;;;19.00;14.20;;;;;;;13.68;100.00;100158.19;5053387;28;20573;-64
2023/09/28 00:30:09;;;;;;;16.07;14.67;;;;;;;13.70;100.00;100156.34;5059432;28;20192;-64
2023/09/28 00:32:35;;;;;;;15.80;14.33;;;;;;;13.53;100.00;100141.94;5025851;28;20181;-64
2023/09/28 00:35:01;;;;;;;17.63;15.83;;;;;;;13.30;100.00;100126.19;5053353;28;20236;-63
2023/09/28 00:37:27;;;;;;;16.07;14.57;;;;;;;13.38;100.00;100141.22;5069325;28;20181;-65
2023/09/28 00:39:55;;;;;;;16.07;14.50;;;;;;;13.40;100.00;100137.59;5040779;28;20605;-63
2023/09/28 00:42:20;;;;;;;16.13;14.63;;;;;;;13.59;100.00;100148.47;5023866;28;20225;-64
2023/09/28 00:44:46;;;;;;;16.33;14.83;;;;;;;13.64;100.00;100151.59;5036734;28;20236;-63
2023/09/28 00:47:11;;;;;;;17.37;15.63;;;;;;;13.67;100.00;100152.22;5046526;28;20170;-64
2023/09/28 00:49:36;;;;;;;17.50;15.73;;;;;;;13.68;100.00;100146.13;5048702;28;20184;-62
2023/09/28 00:52:03;;;;;;;18.00;15.83;;;;;;;13.71;100.00;100158.00;5058758;28;20216;-63
2023/09/28 00:54:29;;;;;;;17.73;16.13;;;;;;;13.75;100.00;100159.44;5068766;28;20202;-64
2023/09/28 00:56:55;;;;;;;18.63;16.20;;;;;;;13.83;100.00;100162.34;5062314;28;20620;-63
2023/09/28 00:59:21;;;;;;;17.47;15.60;;;;;;;13.85;100.00;100157.06;5069035;28;20189;-63
2023/09/28 01:01:47;;;;;;;18.63;16.73;;;;;;;13.75;100.00;100154.28;5036154;28;20282;-63
2023/09/28 01:04:12;;;;;;;17.90;16.10;;;;;;;13.64;100.00;100151.59;5038085;28;20277;-63
2023/09/28 01:06:38;;;;;;;17.27;15.47;;;;;;;13.74;100.00;100160.38;5045821;28;20648;-63
2023/09/28 01:09:08;;;;;;;17.27;15.47;;;;;;;13.85;100.00;100165.69;5048504;28;20688;-64
2023/09/28 01:11:34;;;;;;;17.03;15.43;;;;;;;13.89;100.00;100174.03;5014068;28;20226;-65
2023/09/28 01:14:01;;;;;;;17.40;15.70;;;;;;;13.90;100.00;100167.13;5043569;28;20268;-64
2023/09/28 01:16:26;;;;;;;16.87;15.27;;;;;;;13.91;100.00;100166.19;5049065;28;20224;-63
2023/09/28 01:18:52;;;;;;;16.43;14.93;;;;;;;13.72;100.00;100170.81;5034094;28;20268;-63
2023/09/28 01:21:18;;;;;;;18.13;16.13;;;;;;;13.66;100.00;100171.22;5019034;28;20224;-65
2023/09/28 01:23:45;;;;;;;19.33;16.17;;;;;;;13.72;100.00;100165.66;5040448;28;20244;-64
2023/09/28 01:26:10;;;;;;;15.73;14.20;;;;;;;13.67;100.00;100159.16;5053504;28;20254;-63
2023/09/28 01:28:36;;;;;;;15.93;14.37;;;;;;;13.58;100.00;100154.59;5042060;28;20618;-64
2023/09/28 01:31:01;;;;;;;15.63;14.00;;;;;;;13.66;100.00;100160.09;5045795;28;20224;-64
2023/09/28 01:33:27;;;;;;;18.13;14.23;;;;;;;13.72;100.00;100162.25;5051061;28;20645;-63
2023/09/28 01:35:53;;;;;;;16.57;14.97;;;;;;;13.74;100.00;100162.97;5066886;28;20266;-63
2023/09/28 01:38:42;;;;;;;16.17;14.70;;;;;;;13.79;100.00;100166.09;5057455;28;20247;-63
2023/09/28 01:41:08;;;;;;;16.87;14.37;;;;;;;13.91;100.00;100182.53;5061094;28;20224;-63
2023/09/28 01:43:35;;;;;;;20.10;15.97;;;;;;;13.92;100.00;100180.75;5055165;28;20177;-64
2023/09/28 01:46:00;;;;;;;16.07;14.53;;;;;;;13.86;100.00;100185.41;5043741;28;20179;-64
2023/09/28 01:48:26;;;;;;;17.33;15.63;;;;;;;13.84;100.00;100182.13;5037630;28;20565;-63
2023/09/28 01:50:51;;;;;;;18.70;17.07;;;;;;;13.90;100.00;100164.53;5043625;28;20229;-63
2023/09/28 01:53:17;;;;;;;18.70;17.00;;;;;;;13.76;100.00;100168.06;5058051;28;20284;-64
2023/09/28 01:55:43;;;;;;;17.23;15.67;;;;;;;13.88;100.00;100178.38;5051251;28;20169;-64
2023/09/28 01:58:09;;;;;;;18.13;15.37;;;;;;;13.96;100.00;100197.72;5040949;28;20649;-63
2023/09/28 02:00:35;;;;;;;15.57;14.17;;;;;;;14.02;100.00;100190.38;5038138;28;20239;-64
2023/09/28 02:03:03;;;;;;;17.37;15.53;;;;;;;13.85;100.00;100170.84;5049334;28;20201;-64
2023/09/28 02:05:32;;;;;;;16.33;14.67;;;;;;;13.69;100.00;100170.19;5044680;28;20181;-64
2023/09/28 02:08:02;;;;;;;16.87;15.40;;;;;;;13.67;100.00;100147.03;5054453;28;20181;-64
2023/09/28 02:10:28;;;;;;;18.50;16.90;;;;;;;13.61;100.00;100141.47;5047607;28;20236;-64
2023/09/28 02:12:53;;;;;;;18.53;16.83;;;;;;;13.69;100.00;100149.53;5043564;28;20277;-63
2023/09/28 02:15:18;;;;;;;17.43;15.83;;;;;;;13.78;100.00;100142.91;5032069;28;20182;-64
2023/09/28 02:17:44;;;;;;;18.37;16.47;;;;;;;13.78;100.00;100155.81;5031782;28;20186;-63
2023/09/28 02:20:14;;;;;;;18.60;16.43;;;;;;;13.86;100.00;100171.66;5038694;28;20186;-63
2023/09/28 02:22:43;;;;;;;17.43;15.83;;;;;;;13.95;100.00;100171.03;5035639;28;20323;-63
2023/09/28 02:25:15;;;;;;;17.33;15.63;;;;;;;14.07;100.00;100165.97;5052168;28;20177;-63
2023/09/28 02:27:41;;;;;;;18.47;16.57;;;;;;;14.11;100.00;100180.34;5051868;28;20551;-63
2023/09/28 02:30:09;;;;;;;18.20;16.47;;;;;;;14.18;100.00;100185.00;5029187;28;20189;-65
2023/09/28 02:32:34;;;;;;;18.80;16.93;;;;;;;14.10;100.00;100189.84;5037567;28;20213;-63
2023/09/28 02:34:59;;;;;;;17.60;16.00;;;;;;;14.10;100.00;100182.09;5051714;28;20252;-64
2023/09/28 02:37:24;;;;;;;20.37;18.57;;;;;;;13.99;100.00;100189.75;5052100;28;20186;-63
2023/09/28 02:39:49;;;;;;;19.60;17.70;;;;;;;13.99;100.00;100190.59;5050219;28;20192;-67
2023/09/28 02:42:15;;;;;;;20.80;18.60;;;;;;;14.02;100.00;100192.97;5052882;28;20298;-65
2023/09/28 02:44:40;;;;;;;20.87;18.67;;;;;;;14.06;100.00;100188.41;5064870;28;20192;-64
2023/09/28 02:47:05;;;;;;;19.40;17.37;;;;;;;14.10;100.00;100189.84;5069738;28;20625;-64
2023/09/28 02:49:34;;;;;;;20.00;17.97;;;;;;;14.07;100.00;100195.25;5071311;28;20191;-64
2023/09/28 02:52:00;;;;;;;18.30;16.43;;;;;;;14.07;100.00;100192.66;5039684;28;20249;-63
2023/09/28 02:54:26;;;;;;;20.87;18.73;;;;;;;13.96;100.00;100195.16;5049808;28;20197;-63
2023/09/28 02:56:53;;;;;;;19.47;17.57;;;;;;;13.74;100.00;100191.41;5032217;28;20297;-63
2023/09/28 02:59:22;;;;;;;19.53;17.73;;;;;;;13.79;100.00;100189.34;5045562;28;20181;-63
2023/09/28 03:01:51;;;;;;;22.00;18.20;;;;;;;13.77;100.00;100198.13;5059449;28;20235;-63
2023/09/28 03:04:17;;;;;;;18.47;16.77;;;;;;;13.92;100.00;100210.03;5049362;28;20231;-64
2023/09/28 03:06:44;;;;;;;20.53;18.47;;;;;;;13.93;100.00;100210.84;5032340;28;20644;-64
2023/09/28 03:09:11;;;;;;;23.33;20.83;;;;;;;13.81;100.00;100200.41;5033108;28;20194;-64
2023/09/28 03:11:37;;;;;;;20.83;18.80;;;;;;;13.82;100.00;100198.66;5030975;28;20228;-63
2023/09/28 03:14:03;;;;;;;22.27;19.97;;;;;;;13.82;100.00;100202.06;5049733;28;20224;-64
2023/09/28 03:16:28;;;;;;;21.33;19.13;;;;;;;13.85;100.00;100196.72;5050455;28;20182;-64
2023/09/28 03:18:54;;;;;;;21.37;19.17;;;;;;;13.83;100.00;100188.22;5066391;28;20537;-63
2023/09/28 03:21:19;;;;;;;20.20;18.03;;;;;;;13.90;100.00;100180.03;5051383;28;20308;-64
2023/09/28 03:23:45;;;;;;;21.07;18.97;;;;;;;13.87;100.00;100181.91;5043360;28;20548;-64
2023/09/28 03:26:11;;;;;;;20.07;18.17;;;;;;;14.02;100.00;100179.22;5075060;28;20233;-64
2023/09/28 03:28:36;;;;;;;21.90;19.73;;;;;;;14.08;100.00;100180.53;5072052;28;20271;-65
2023/09/28 03:31:01;;;;;;;20.00;18.10;;;;;;;14.06;100.00;100185.81;5028737;28;20228;-64
2023/09/28 03:33:26;;;;;;;21.07;18.70;;;;;;;14.03;100.00;100184.28;5058886;28;20197;-64
2023/09/28 03:35:52;;;;;;;22.50;20.23;;;;;;;13.99;100.00;100179.41;5067080;28;20676;-63
2023/09/28 03:38:17;;;;;;;19.77;17.73;;;;;;;13.97;100.00;100189.88;5055988;28;20184;-63
2023/09/28 03:40:43;;;;;;;20.90;18.83;;;;;;;14.06;100.00;100185.81;5062231;28;20248;-64
2023/09/28 03:43:08;;;;;;;19.43;17.60;;;;;;;14.05;100.00;100184.16;5070021;28;20185;-64
2023/09/28 03:45:34;;;;;;;20.70;18.70;;;;;;;14.03;100.00;100183.47;5061441;28;20555;-64
2023/09/28 03:48:00;;;;;;;20.87;18.87;;;;;;;14.01;100.00;100183.53;5072499;28;20180;-64
2023/09/28 03:50:25;;;;;;;23.30;21.10;;;;;;;13.91;100.00;100177.34;5043753;28;20370;-63
2023/09/28 03:52:51;;;;;;;20.23;18.43;;;;;;;13.75;100.00;100187.88;5034034;28;20294;-65
2023/09/28 03:55:18;;;;;;;21.90;19.60;;;;;;;13.74;100.00;100193.97;5055021;28;20186;-63
2023/09/28 03:57:44;;;;;;;22.33;20.13;;;;;;;13.70;100.00;100183.00;5069500;28;20610;-63
2023/09/28 04:00:13;;;;;;;22.77;20.57;;;;;;;13.71;100.00;100195.00;5044406;28;20201;-63
2023/09/28 04:02:41;;;;;;;19.33;17.53;;;;;;;13.55;100.00;100195.19;5051441;28;20230;-63
2023/09/28 04:05:07;;;;;;;21.23;19.13;;;;;;;13.55;100.00;100197.78;5050587;28;20174;-63
2023/09/28 04:07:33;;;;;;;21.60;19.40;;;;;;;13.57;100.00;100189.94;5065204;28;20178;-63
2023/09/28 04:09:59;;;;;;;22.47;19.93;;;;;;;13.53;100.00;100202.25;5052933;28;20177;-63
2023/09/28 04:12:24;;;;;;;24.03;21.57;;;;;;;13.46;100.00;100200.13;5059071;28;20664;-63
2023/09/28 04:14:49;;;;;;;21.77;19.77;;;;;;;13.37;100.00;100201.53;5046649;28;20577;-63
2023/09/28 04:17:15;;;;;;;23.83;20.83;;;;;;;13.23;100.00;100210.16;5048241;28;20177;-63
2023/09/28 04:19:41;;;;;;;21.93;19.70;;;;;;;13.33;100.00;100213.00;5049815;28;20328;-64
2023/09/28 04:22:06;;;;;;;23.87;21.47;;;;;;;13.31;100.00;100205.34;5044298;28;20241;-63
2023/09/28 04:24:32;;;;;;;25.77;22.60;;;;;;;13.23;100.00;100203.28;5042402;28;20556;-63
2023/09/28 04:26:58;;;;;;;27.03;24.20;;;;;;;13.29;100.00;100208.97;5052860;28;20200;-63
2023/09/28 04:29:27;;;;;;;25.50;22.47;;;;;;;13.22;100.00;100217.09;5053774;28;20180;-63
2023/09/28 04:31:52;;;;;;;23.80;21.50;;;;;;;13.26;100.00;100215.16;5027944;28;20238;-64
2023/09/28 04:34:18;;;;;;;26.23;23.40;;;;;;;13.18;100.00;100207.88;5021693;28;20244;-63
2023/09/28 04:36:44;;;;;;;23.97;21.63;;;;;;;13.22;100.00;100214.53;5034097;28;20186;-63
2023/09/28 04:39:10;;;;;;;25.53;22.70;;;;;;;13.18;100.00;100231.13;5033306;28;20170;-62
2023/09/28 04:41:36;;;;;;;25.40;23.00;;;;;;;13.07;100.00;100228.38;5034615;28;20263;-63
2023/09/28 04:44:02;;;;;;;24.13;21.77;;;;;;;13.05;100.00;100223.34;5050195;28;20192;-65
2023/09/28 04:46:27;;;;;;;23.83;21.50;;;;;;;13.05;100.00;100232.84;5035979;28;20261;-65
2023/09/28 04:48:54;;;;;;;25.90;23.30;;;;;;;13.03;100.00;100237.28;5035091;28;20213;-64
2023/09/28 04:51:19;;;;;;;25.13;22.60;;;;;;;12.95;100.00;100242.06;5041933;28;20233;-63
2023/09/28 04:53:44;;;;;;;23.73;21.37;;;;;;;12.81;100.00;100246.31;5026228;28;20244;-64
2023/09/28 04:56:11;;;;;;;23.93;21.50;;;;;;;12.93;100.00;100241.34;5033885;28;20244;-65
2023/09/28 04:58:37;;;;;;;26.53;23.73;;;;;;;12.85;100.00;100241.81;5020006;28;20202;-64
2023/09/28 05:01:02;;;;;;;25.93;23.40;;;;;;;12.84;100.00;100255.66;5031462;28;20312;-64
2023/09/28 05:03:27;;;;;;;28.43;25.07;;;;;;;12.86;100.00;100259.81;5028269;28;20186;-64
2023/09/28 05:05:53;;;;;;;27.60;24.90;;;;;;;12.91;100.00;100267.25;5032051;28;20618;-65
2023/09/28 05:08:18;;;;;;;27.57;24.67;;;;;;;12.92;100.00;100258.59;5033616;28;20181;-64
2023/09/28 05:10:43;;;;;;;32.03;28.53;;;;;;;12.93;100.00;100262.00;5029193;28;20232;-63
2023/09/28 05:13:08;;;;;;;30.00;27.10;;;;;;;12.69;100.00;100255.66;5034266;28;20278;-64
2023/09/28 05:15:34;;;;;;;30.27;27.10;;;;;;;12.71;100.00;100255.56;5028125;28;20182;-64
2023/09/28 05:17:59;;;;;;;32.03;27.43;;;;;;;12.71;100.00;100256.41;5033407;28;20182;-63
2023/09/28 05:20:25;;;;;;;29.80;26.67;;;;;;;12.70;100.00;100257.34;5025149;28;20237;-63
2023/09/28 05:22:50;;;;;;;30.10;26.87;;;;;;;12.86;100.00;100269.28;5044591;28;20256;-63
2023/09/28 05:25:15;;;;;;;29.60;25.57;;;;;;;12.91;100.00;100278.41;5020020;28;20948;-64
2023/09/28 05:27:40;;;;;;;33.10;27.33;;;;;;;12.98;100.00;100275.47;5033413;28;20197;-64
2023/09/28 05:30:06;;;;;;;28.03;25.23;;;;;;;13.04;100.00;100270.72;5020372;28;20545;-64
2023/09/28 05:32:32;;;;;;;31.90;27.13;;;;;;;12.95;100.00;100265.31;5048174;28;20273;-64
2023/09/28 05:34:57;;;;;;;30.40;27.07;;;;;;;12.81;100.00;100274.72;5031567;28;20201;-65
2023/09/28 05:37:22;;;;;;;28.50;25.60;;;;;;;12.92;100.00;100268.91;5033137;28;20579;-64
2023/09/28 05:39:48;;;;;;;29.73;26.53;;;;;;;13.04;100.00;100272.50;5032916;28;20190;-64
2023/09/28 05:42:13;;;;;;;27.20;24.40;;;;;;;13.15;100.00;100266.69;5022582;28;20217;-64
2023/09/28 05:44:39;;;;;;;29.77;25.13;;;;;;;13.20;100.00;100280.13;5032898;28;20182;-64
2023/09/28 05:47:04;;;;;;;28.63;25.40;;;;;;;13.30;100.00;100280.38;5033105;28;20557;-65
2023/09/28 05:49:30;;;;;;;28.47;25.00;;;;;;;13.39;100.00;100277.22;5032745;28;20186;-65
2023/09/28 05:51:56;;;;;;;27.50;24.73;;;;;;;13.44;100.00;100285.50;5023506;28;20608;-64
2023/09/28 05:54:21;;;;;;;28.13;25.17;;;;;;;13.52;100.00;100279.84;5033410;28;20237;-65
2023/09/28 05:56:47;;;;;;;34.33;26.87;;;;;;;13.47;100.00;100272.41;5032940;28;20206;-65
2023/09/28 05:59:12;;;;;;;27.47;24.77;;;;;;;13.35;100.00;100279.13;5033072;28;20216;-64
2023/09/28 06:01:38;;;;;;;28.93;25.93;;;;;;;13.55;100.00;100275.31;5023793;28;20308;-65
2023/09/28 06:04:04;;;;;;;26.23;23.53;;;;;;;13.66;100.00;100276.41;5031330;28;20205;-65
2023/09/28 06:06:29;;;;;;;26.90;24.00;;;;;;;13.74;100.00;100281.06;5030981;28;20170;-64
2023/09/28 06:08:55;;;;;;;26.90;23.37;;;;;;;14.01;100.00;100275.84;5032311;28;20232;-66
2023/09/28 06:11:20;;;;;;;24.60;22.03;;;;;;;14.23;100.00;100280.41;5031677;28;20252;-67
2023/09/28 06:13:45;;;;;;;24.03;21.47;;;;;;;14.38;100.00;100285.50;5030769;28;20217;-65
2023/09/28 06:16:12;;;;;;;24.80;22.40;;;;;;;14.65;100.00;100283.63;5032359;28;20661;-64
2023/09/28 06:18:42;;;;;;;24.90;21.40;;;;;;;14.89;100.00;100277.69;5047820;28;20217;-64
2023/09/28 06:21:07;;;;;;;21.13;19.13;;;;;;;15.03;100.00;100278.47;5033976;28;20293;-64
2023/09/28 06:23:33;;;;;;;21.57;18.80;;;;;;;15.65;100.00;100278.34;5039877;28;20317;-65
2023/09/28 06:25:59;;;;;;;18.63;16.77;;;;;;;16.46;100.00;100273.22;5014828;28;20187;-64
2023/09/28 06:28:24;;;;;;;18.50;16.80;;;;;;;16.57;100.00;100274.16;5024710;28;20569;-64
2023/09/28 06:30:52;;;;;;;18.10;16.37;;;;;;;17.21;100.00;100259.69;5028413;28;20571;-64
2023/09/28 06:33:17;;;;;;;15.80;14.20;;;;;;;17.99;100.00;100260.31;5040386;28;20229;-65
2023/09/28 06:35:43;;;;;;;15.23;13.73;;;;;;;18.38;100.00;100249.25;5031986;28;20265;-65
2023/09/28 06:38:08;;;;;;;16.00;13.40;;;;;;;18.71;100.00;100268.16;5031705;28;20253;-66
2023/09/28 06:40:33;;;;;;;15.07;13.50;;;;;;;18.75;100.00;100274.75;5014843;28;20229;-64
2023/09/28 06:42:58;;;;;;;15.77;14.30;;;;;;;19.12;100.00;100268.16;5033746;28;20584;-66
2023/09/28 06:45:24;;;;;;;16.67;12.90;;;;;;;20.40;100.00;100269.66;5020604;28;20194;-66
2023/09/28 06:47:49;;;;;;;13.83;11.50;;;;;;;21.63;100.00;100284.25;5031109;28;20186;-64
2023/09/28 06:50:14;;;;;;;14.60;12.27;;;;;;;22.80;100.00;100287.38;5004574;28;20545;-63
2023/09/28 06:52:40;;;;;;;16.50;12.70;;;;;;;23.87;100.00;100295.41;5028422;28;20262;-64
2023/09/28 06:55:07;;;;;;;13.80;12.40;;;;;;;24.35;100.00;100303.38;5031838;28;20605;-63
2023/09/28 06:57:33;;;;;;;14.47;12.27;;;;;;;24.51;100.00;100305.13;5031373;28;20182;-63
2023/09/28 06:59:58;;;;;;;13.32;11.98;;;;;;;24.73;98.32;100306.19;5027237;28;20186;-64
2023/09/28 07:02:24;;;;;;;11.30;10.30;;;;;;;25.26;94.80;100300.31;5022500;28;20221;-63
2023/09/28 07:04:49;;;;;;;14.63;11.05;;;;;;;25.24;93.31;100308.41;5031223;28;20174;-63
2023/09/28 07:07:17;;;;;;;12.80;10.55;;;;;;;25.58;91.63;100301.13;5027803;28;20270;-65
2023/09/28 07:09:43;;;;;;;11.25;10.15;;;;;;;26.20;87.59;100307.16;5020749;28;20240;-64
2023/09/28 07:12:10;;;;;;;13.93;9.00;;;;;;;25.80;89.70;100303.88;5034245;28;20237;-63
2023/09/28 07:14:36;;;;;;;11.32;10.23;;;;;;;24.64;95.93;100320.38;5029360;28;20562;-63
2023/09/28 07:17:01;;;;;;;11.02;9.77;;;;;;;24.44;100.00;100333.91;5029949;28;20185;-62
2023/09/28 07:19:27;;;;;;;10.73;9.75;;;;;;;25.72;93.47;100331.94;5046295;28;20185;-63
2023/09/28 07:21:53;;;;;;;10.98;9.98;;;;;;;24.80;96.30;100330.84;5034496;28;20692;-63
2023/09/28 07:24:19;;;;;;;16.45;10.05;;;;;;;24.20;98.88;100336.59;5041497;28;20681;-63
2023/09/28 07:26:46;;;;;;;10.90;9.93;;;;;;;24.45;100.00;100334.75;5031423;28;20194;-63
2023/09/28 07:29:11;;;;;;;13.75;10.00;;;;;;;25.03;97.39;100329.25;5026709;28;20848;-62
2023/09/28 07:31:37;;;;;;;12.68;10.50;;;;;;;25.11;95.83;100326.59;5005432;28;20233;-67
2023/09/28 07:34:02;;;;;;;13.00;11.15;;;;;;;24.95;96.73;100343.28;5037936;28;20258;-62
2023/09/28 07:36:27;;;;;;;14.30;11.20;;;;;;;24.14;100.00;100346.78;5050718;28;20185;-63
2023/09/28 07:38:53;;;;;;;19.48;12.60;;;;;;;23.40;100.00;100341.50;5050728;28;20173;-63
2023/09/28 07:41:18;;;;;;;13.95;12.30;;;;;;;22.32;100.00;100347.25;5027751;28;20222;-63
2023/09/28 07:43:43;;;;;;;21.02;13.60;;;;;;;22.69;100.00;100338.31;5035982;28;20643;-63
2023/09/28 07:46:09;;;;;;;15.23;13.60;;;;;;;22.62;100.00;100332.06;5037347;28;20184;-64
2023/09/28 07:48:34;;;;;;;17.70;14.18;;;;;;;22.88;100.00;100330.19;5044142;28;20720;-64
2023/09/28 07:51:00;;;;;;;16.38;14.00;;;;;;;22.38;100.00;100329.13;5035098;28;20228;-63
2023/09/28 07:53:25;;;;;;;19.23;13.73;;;;;;;22.56;100.00;100328.25;5051689;28;20217;-63
2023/09/28 07:55:50;;;;;;;16.33;14.48;;;;;;;22.80;100.00;100324.06;5038003;28;20182;-63
2023/09/28 07:58:15;;;;;;;20.33;14.75;;;;;;;22.45;100.00;100336.38;5043992;28;20185;-64
2023/09/28 08:00:42;;;;;;;15.70;14.30;;;;;;;22.68;100.00;100339.28;5033043;28;20236;-64
2023/09/28 08:03:07;;;;;;;15.77;14.18;;;;;;;23.37;100.00;100340.03;5046399;28;20185;-65
2023/09/28 08:05:32;;;;;;;22.52;14.82;;;;;;;23.28;100.00;100343.63;5036096;28;20282;-65
2023/09/28 08:07:58;;;;;;;16.17;14.45;;;;;;;22.98;100.00;100343.16;5016146;28;20186;-65
2023/09/28 08:10:23;;;;;;;17.67;15.00;;;;;;;21.90;100.00;100346.94;5004745;28;20268;-64
2023/09/28 08:12:48;;;;;;;22.50;15.75;;;;;;;21.02;100.00;100347.53;5049249;28;20260;-63
2023/09/28 08:15:15;;;;;;;17.07;15.53;;;;;;;20.73;100.00;100353.75;5052538;28;20645;-64
2023/09/28 08:17:44;;;;;;;17.00;15.40;;;;;;;20.57;100.00;100358.72;5045636;28;20178;-63
2023/09/28 08:20:10;;;;;;;17.53;15.73;;;;;;;20.50;100.00;100353.22;5019304;28;20537;-65
2023/09/28 08:22:35;;;;;;;19.00;15.70;;;;;;;20.18;100.00;100353.59;5047668;28;20221;-63
2023/09/28 08:25:01;;;;;;;18.87;16.77;;;;;;;20.00;100.00;100354.31;5044324;28;20660;-66
2023/09/28 08:27:26;;;;;;;21.60;16.40;;;;;;;20.08;100.00;100351.00;5049489;28;20541;-63
2023/09/28 08:29:51;;;;;;;18.17;16.13;;;;;;;19.88;100.00;100355.41;5051528;28;20193;-65
2023/09/28 08:32:17;;;;;;;18.83;16.87;;;;;;;19.99;100.00;100342.22;5039315;28;20225;-64
2023/09/28 08:34:43;;;;;;;19.73;16.33;;;;;;;20.01;100.00;100353.34;5027328;28;20194;-65
2023/09/28 08:37:09;;;;;;;17.67;15.97;;;;;;;20.01;100.00;100355.97;5045570;28;20181;-64
2023/09/28 08:39:35;;;;;;;19.37;17.47;;;;;;;20.17;100.00;100358.00;5041126;28;20239;-66
2023/09/28 08:42:03;;;;;;;20.47;18.23;;;;;;;20.17;100.00;100360.63;5038940;28;20213;-67
2023/09/28 08:44:31;;;;;;;21.23;18.40;;;;;;;20.22;100.00;100361.00;5044719;28;20178;-67
2023/09/28 08:46:58;;;;;;;19.97;17.90;;;;;;;20.32;100.00;100355.78;5038953;28;20192;-67
2023/09/28 08:49:29;;;;;;;19.10;17.20;;;;;;;20.60;100.00;100359.28;5058884;28;20182;-67
2023/09/28 08:51:55;;;;;;;18.37;16.53;;;;;;;20.75;100.00;100359.66;5055440;28;20251;-66
2023/09/28 08:54:22;;;;;;;20.67;17.23;;;;;;;20.75;100.00;100367.50;5044172;28;20240;-66
2023/09/28 08:56:50;;;;;;;19.23;16.17;;;;;;;22.19;100.00;100356.34;5063038;28;20197;-66
2023/09/28 08:59:18;;;;;;;17.17;15.47;;;;;;;24.07;100.00;100366.00;5057274;28;20184;-67
2023/09/28 09:01:46;;;;;;;15.60;13.73;;;;;;;26.34;95.19;100368.78;5050244;28;20268;-68
2023/09/28 09:04:11;;;;;;;13.48;12.15;;;;;;;28.81;72.57;100377.47;5038886;28;20178;-69
2023/09/28 09:06:36;;;;;;;17.42;13.07;;;;;;;29.45;67.06;100363.00;5023920;28;20281;-68
2023/09/28 09:09:05;;;;;;;12.85;11.57;;;;;;;31.39;55.23;100369.72;5034151;28;20217;-72
2023/09/28 09:11:31;;;;;;;11.98;9.88;;;;;;;31.29;48.71;100360.59;5035150;28;20248;-70
2023/09/28 09:13:57;;;;;;;10.80;9.80;;;;;;;31.49;47.97;100358.59;5052393;28;20641;-73
2023/09/28 09:16:24;;;;;;;11.40;10.30;;;;;;;32.21;45.57;100365.38;5051793;28;20205;-71
2023/09/28 09:18:53;;;;;;;14.52;9.60;;;;;;;32.47;44.23;100379.44;5043278;28;20182;-71
2023/09/28 09:21:19;;;;;;;9.88;9.07;;;;;;;32.85;43.39;100378.41;5033944;28;20319;-71
2023/09/28 09:24:04;;;;;;;11.20;9.38;;;;;;;33.55;40.30;100373.53;5033378;28;20549;-72
2023/09/28 09:26:43;;;;;;;9.25;7.25;;;;;;;33.07;41.59;100378.72;5040771;28;20220;-72
2023/09/28 09:29:12;;;;;;;7.57;6.63;;;;;;;34.29;38.62;100377.63;5050707;28;20177;-72
2023/09/28 09:31:47;;;;;;;12.63;6.80;;;;;;;34.34;37.22;100383.84;5039644;28;20245;-70
2023/09/28 09:34:17;;;;;;;9.10;7.47;;;;;;;32.71;40.06;100372.41;5028287;28;20499;-71
2023/09/28 09:36:51;;;;;;;9.63;7.45;;;;;;;32.76;41.39;100369.06;5034499;28;20178;-69
2023/09/28 09:39:28;;;;;;;12.27;6.50;;;;;;;31.27;44.37;100366.13;5034331;28;20194;-70
2023/09/28 09:41:54;;;;;;;7.07;5.90;;;;;;;31.02;46.15;100363.34;5047546;28;20227;-71
2023/09/28 09:44:21;;;;;;;8.77;6.22;;;;;;;31.17;44.68;100355.97;5055487;28;20208;-70
2023/09/28 09:46:51;;;;;;;5.18;4.03;;;;;;;32.06;40.96;100359.59;5037754;28;20197;-72
2023/09/28 09:49:16;;;;;;;7.57;3.40;;;;;;;32.02;42.80;100365.31;5034554;28;20221;-69
2023/09/28 09:51:46;;;;;;;6.10;4.22;;;;;;;32.55;39.93;100365.84;5029272;28;20465;-69
2023/09/28 09:54:16;;;;;;;5.53;3.50;;;;;;;34.43;36.58;100374.47;5037294;28;20214;-70
2023/09/28 09:56:46;;;;;;;3.47;3.17;;;;;;;33.54;36.06;100374.56;5053278;28;20181;-69
2023/09/28 09:59:16;;;;;;;4.32;3.15;;;;;;;35.17;33.86;100380.94;5053717;28;20715;-69
2023/09/28 10:01:48;;;;;;;6.13;3.13;;;;;;;35.81;33.40;100385.22;5039161;28;20229;-69
2023/09/28 10:04:21;;;;;;;6.95;3.15;;;;;;;32.80;36.02;100384.38;5035865;28;20186;-71
2023/09/28 10:06:51;;;;;;;4.22;3.40;;;;;;;34.57;34.62;100372.34;5033600;28;20189;-71
2023/09/28 10:09:20;;;;;;;4.50;3.00;;;;;;;33.67;36.42;100371.69;5033006;28;20182;-71
2023/09/28 10:11:48;;;;;;;5.18;3.22;;;;;;;34.38;36.17;100360.19;5027902;28;20291;-70
2023/09/28 10:14:15;;;;;;;3.95;2.75;;;;;;;34.70;36.27;100357.88;5027413;28;20630;-71
2023/09/28 10:16:42;;;;;;;2.97;2.70;;;;;;;31.35;39.83;100359.72;5033558;28;20182;-68
2023/09/28 10:19:09;;;;;;;6.75;2.85;;;;;;;30.37;44.53;100356.25;5033008;28;20219;-69
2023/09/28 10:21:37;;;;;;;5.07;3.08;;;;;;;29.95;51.36;100352.03;5026409;28;20657;-69
2023/09/28 10:24:14;;;;;;;5.75;3.15;;;;;;;28.63;53.60;100356.81;5028647;28;20561;-65
2023/09/28 10:26:47;;;;;;;5.85;3.30;;;;;;;27.76;70.62;100338.56;5032426;28;20208;-64
2023/09/28 10:29:19;;;;;;;7.68;3.78;;;;;;;27.18;77.80;100338.59;5031941;28;20182;-63
2023/09/28 10:31:45;;;;;;;5.45;3.13;;;;;;;25.88;86.73;100332.78;5026882;28;20312;-64
2023/09/28 10:34:20;;;;;;;6.45;3.35;;;;;;;25.42;87.09;100329.19;5019361;28;20793;-63
2023/09/28 10:37:05;;;;;;;4.60;3.05;;;;;;;24.60;89.69;100338.28;5031618;28;20689;-63
2023/09/28 10:39:32;;;;;;;7.07;3.00;;;;;;;24.46;91.54;100339.81;5019019;28;20179;-64
2023/09/28 10:42:05;;;;;;;4.40;3.53;;;;;;;24.03;96.20;100347.13;5037040;28;20400;-64
2023/09/28 10:44:31;;;;;;;4.18;2.83;;;;;;;23.74;97.31;100340.56;5051646;28;20654;-63
2023/09/28 10:46:58;;;;;;;3.63;3.33;;;;;;;23.87;97.41;100341.88;5039328;28;20228;-65
2023/09/28 10:49:24;;;;;;;4.20;3.22;;;;;;;24.13;99.24;100341.69;5046445;28;20216;-64
2023/09/28 10:51:51;;;;;;;5.05;3.35;;;;;;;23.99;96.70;100348.47;5042676;28;20232;-63
2023/09/28 10:54:16;;;;;;;5.93;3.30;;;;;;;24.17;95.92;100356.13;5048358;28;20217;-64
2023/09/28 10:56:42;;;;;;;4.28;3.13;;;;;;;23.79;96.48;100351.38;5051316;28;20573;-64
2023/09/28 10:59:09;;;;;;;2.88;2.53;;;;;;;23.73;96.01;100349.41;5033786;28;20325;-63
2023/09/28 11:01:39;;;;;;;3.78;3.30;;;;;;;23.47;96.60;100339.88;5053060;28;20217;-65
2023/09/28 11:04:05;;;;;;;6.15;2.72;;;;;;;23.40;97.61;100341.50;5050570;28;20234;-63